Time;durP1;ratioP1;P1;durP2;ratioP2;P2;SDS_P1;SDS_P2;PMS_P1;PMS_P2;Temp;Humidity;BMP_temperature;BMP_pressure;BME280_temperature;BME280_humidity;BME280_pressure;Samples;Min_cycle;Max_cycle;Signal;HPM_P1;HPM_P2
2021/01/04 00:01:37;;;;;;;12.57;7.95;;;;;;;;;;6184461;23;20035;-73
2021/01/04 00:04:22;;;;;;;10.88;7.50;;;;;;;;;;6213362;23;20095;-74
2021/01/04 00:06:57;;;;;;;10.45;6.85;;;;;;;;;;6213374;23;20500;-73
2021/01/04 00:09:28;;;;;;;14.60;8.55;;;;;;;;;;6213320;23;20021;-71
2021/01/04 00:11:57;;;;;;;11.32;7.35;;;;;;;;;;6211756;23;20021;-71
2021/01/04 00:14:35;;;;;;;11.55;7.47;;;;;;;;;;6213658;23;20099;-71
2021/01/04 00:17:16;;;;;;;10.55;7.13;;;;;;;;;;6211926;23;20020;-71
2021/01/04 00:19:51;;;;;;;10.43;7.47;;;;;;;;;;6213546;23;20357;-72
2021/01/04 00:22:36;;;;;;;8.98;6.70;;;;;;;;;;6213811;23;20107;-71
2021/01/04 00:25:17;;;;;;;10.30;6.40;;;;;;;;;;6213620;23;20452;-71
2021/01/04 00:27:46;;;;;;;9.52;7.13;;;;;;;;;;6214213;23;20016;-72
2021/01/04 00:30:19;;;;;;;11.98;6.57;;;;;;;;;;6212543;23;20025;-73
2021/01/04 00:32:45;;;;;;;10.90;7.38;;;;;;;;;;6212770;23;20103;-72
2021/01/04 00:35:13;;;;;;;11.38;7.40;;;;;;;;;;6213249;23;20021;-72
2021/01/04 00:38:17;;;;;;;11.35;7.93;;;;;;;;;;6212454;23;20095;-73
2021/01/04 00:40:46;;;;;;;8.73;6.43;;;;;;;;;;6061015;23;20029;-72
2021/01/04 00:43:16;;;;;;;10.60;6.40;;;;;;;;;;6063121;23;20025;-72
2021/01/04 00:45:46;;;;;;;10.60;6.63;;;;;;;;;;6140674;23;20472;-72
2021/01/04 00:48:20;;;;;;;10.30;6.32;;;;;;;;;;6213557;23;20504;-72
2021/01/04 00:50:52;;;;;;;8.95;6.38;;;;;;;;;;6213594;23;20020;-72
2021/01/04 00:53:21;;;;;;;9.55;6.18;;;;;;;;;;6213496;23;20058;-73
2021/01/04 00:55:50;;;;;;;9.68;6.35;;;;;;;;;;6212554;23;20036;-72
2021/01/04 00:58:19;;;;;;;8.60;5.93;;;;;;;;;;6214229;23;20403;-72
2021/01/04 01:00:50;;;;;;;9.80;6.17;;;;;;;;;;6212986;23;20296;-72
2021/01/04 01:03:28;;;;;;;8.80;6.13;;;;;;;;;;6212049;23;20099;-72
2021/01/04 01:05:58;;;;;;;9.30;5.95;;;;;;;;;;6212585;23;20029;-71
2021/01/04 01:08:26;;;;;;;9.48;6.13;;;;;;;;;;6213586;23;20179;-72
2021/01/04 01:10:55;;;;;;;9.23;6.00;;;;;;;;;;6214705;23;20385;-72
2021/01/04 01:13:29;;;;;;;7.97;6.15;;;;;;;;;;6215240;23;20027;-72
2021/01/04 01:16:01;;;;;;;7.72;5.93;;;;;;;;;;6214422;23;20099;-74
2021/01/04 01:18:33;;;;;;;8.05;5.57;;;;;;;;;;6214435;23;20028;-73
2021/01/04 01:21:02;;;;;;;10.52;6.25;;;;;;;;;;6215712;23;20044;-73
2021/01/04 01:23:28;;;;;;;7.10;5.43;;;;;;;;;;6215617;23;20025;-73
2021/01/04 01:26:13;;;;;;;10.23;6.40;;;;;;;;;;6214137;23;20048;-73
2021/01/04 01:28:58;;;;;;;8.73;5.85;;;;;;;;;;6214488;23;20504;-72
2021/01/04 01:31:33;;;;;;;11.93;6.82;;;;;;;;;;6213711;23;20030;-74
2021/01/04 01:34:03;;;;;;;7.05;5.40;;;;;;;;;;6188175;23;20044;-73
2021/01/04 01:36:47;;;;;;;8.53;6.20;;;;;;;;;;6188177;23;20025;-73
2021/01/04 01:39:27;;;;;;;9.38;6.22;;;;;;;;;;6214455;23;20582;-74
2021/01/04 01:42:11;;;;;;;9.43;6.18;;;;;;;;;;6214053;23;20024;-73
2021/01/04 01:44:56;;;;;;;9.98;6.75;;;;;;;;;;6215335;23;20035;-72
2021/01/04 01:47:41;;;;;;;9.90;5.88;;;;;;;;;;6215554;23;20104;-73
2021/01/04 01:50:16;;;;;;;6.30;5.00;;;;;;;;;;6216743;23;20099;-73
2021/01/04 01:52:49;;;;;;;8.63;5.85;;;;;;;;;;6214492;23;20048;-74
2021/01/04 01:55:21;;;;;;;7.97;5.53;;;;;;;;;;6215593;23;20091;-73
2021/01/04 01:57:50;;;;;;;8.40;5.72;;;;;;;;;;6214910;23;20401;-73
2021/01/04 02:00:23;;;;;;;7.47;5.50;;;;;;;;;;6213639;23;20091;-73
2021/01/04 02:03:08;;;;;;;7.60;5.43;;;;;;;;;;6214481;23;20024;-74
2021/01/04 02:05:43;;;;;;;7.57;5.35;;;;;;;;;;6215189;23;20020;-73
2021/01/04 02:08:12;;;;;;;7.25;5.53;;;;;;;;;;6215026;23;20055;-73
2021/01/04 02:10:41;;;;;;;7.85;5.03;;;;;;;;;;6213381;23;20120;-73
2021/01/04 02:13:13;;;;;;;8.73;5.55;;;;;;;;;;6187597;23;20107;-74
2021/01/04 02:15:51;;;;;;;8.07;5.47;;;;;;;;;;6214003;23;20016;-74
2021/01/04 02:18:17;;;;;;;8.18;4.95;;;;;;;;;;6213522;23;20033;-73
2021/01/04 02:21:02;;;;;;;8.57;5.78;;;;;;;;;;6213506;23;20095;-74
2021/01/04 02:23:31;;;;;;;9.65;5.70;;;;;;;;;;6214592;23;20393;-74
2021/01/04 02:26:00;;;;;;;7.05;5.00;;;;;;;;;;6215247;23;20062;-74
2021/01/04 02:28:30;;;;;;;7.10;4.78;;;;;;;;;;6214931;23;20136;-74
2021/01/04 02:30:56;;;;;;;8.57;5.80;;;;;;;;;;6214093;23;20052;-74
2021/01/04 02:33:23;;;;;;;6.35;4.85;;;;;;;;;;6214149;23;20021;-73
2021/01/04 02:35:50;;;;;;;6.82;4.90;;;;;;;;;;6215214;23;20024;-73
2021/01/04 02:38:20;;;;;;;6.55;4.80;;;;;;;;;;6215027;23;20064;-73
2021/01/04 02:40:47;;;;;;;6.10;4.93;;;;;;;;;;6214004;23;20020;-73
2021/01/04 02:43:13;;;;;;;7.28;5.10;;;;;;;;;;6214819;23;20413;-73
2021/01/04 02:45:39;;;;;;;7.38;5.82;;;;;;;;;;6214406;23;20363;-74
2021/01/04 02:48:17;;;;;;;7.35;5.65;;;;;;;;;;6215095;23;20026;-73
2021/01/04 02:50:46;;;;;;;6.65;5.47;;;;;;;;;;6214443;23;20099;-74
2021/01/04 02:53:24;;;;;;;7.13;4.87;;;;;;;;;;6215383;23;20123;-74
2021/01/04 02:56:00;;;;;;;7.93;5.82;;;;;;;;;;6214494;23;20619;-73
2021/01/04 02:58:35;;;;;;;8.55;5.43;;;;;;;;;;6214982;23;20046;-73
2021/01/04 03:01:07;;;;;;;7.78;4.88;;;;;;;;;;6214689;23;20016;-72
2021/01/04 03:03:34;;;;;;;7.40;5.03;;;;;;;;;;6214805;23;20231;-73
2021/01/04 03:06:01;;;;;;;6.80;4.78;;;;;;;;;;6214327;23;20344;-71
2021/01/04 03:08:27;;;;;;;7.68;5.40;;;;;;;;;;6214248;23;20029;-72
2021/01/04 03:10:54;;;;;;;7.18;5.68;;;;;;;;;;6214350;23;20016;-72
2021/01/04 03:13:32;;;;;;;8.43;5.65;;;;;;;;;;6214743;23;20103;-71
2021/01/04 03:16:04;;;;;;;8.05;5.45;;;;;;;;;;6214875;23;20079;-72
2021/01/04 03:18:44;;;;;;;7.63;5.53;;;;;;;;;;6213486;23;20056;-71
2021/01/04 03:21:11;;;;;;;6.45;4.80;;;;;;;;;;6214617;23;20021;-71
2021/01/04 03:23:37;;;;;;;6.88;4.90;;;;;;;;;;6214624;23;20070;-71
2021/01/04 03:26:13;;;;;;;7.53;5.25;;;;;;;;;;6214463;23;20040;-71
2021/01/04 03:28:39;;;;;;;6.97;5.10;;;;;;;;;;6214946;23;20399;-71
2021/01/04 03:31:05;;;;;;;7.13;5.25;;;;;;;;;;6213992;23;20512;-71
2021/01/04 03:33:32;;;;;;;8.18;5.40;;;;;;;;;;6213418;23;20028;-72
2021/01/04 03:35:58;;;;;;;7.15;5.15;;;;;;;;;;6213583;23;20103;-71
2021/01/04 03:38:25;;;;;;;7.22;5.18;;;;;;;;;;6213928;23;20025;-73
2021/01/04 03:40:51;;;;;;;5.57;4.15;;;;;;;;;;6214241;23;20059;-74
2021/01/04 03:43:18;;;;;;;7.20;5.28;;;;;;;;;;6214123;23;20412;-72
2021/01/04 03:45:44;;;;;;;6.15;4.63;;;;;;;;;;6214485;23;20394;-72
2021/01/04 03:48:10;;;;;;;6.72;4.45;;;;;;;;;;6214180;23;20052;-73
2021/01/04 03:50:37;;;;;;;6.80;5.18;;;;;;;;;;6214875;23;20020;-73
2021/01/04 03:53:04;;;;;;;5.82;4.55;;;;;;;;;;6213450;23;20021;-73
2021/01/04 03:55:30;;;;;;;6.82;4.75;;;;;;;;;;6213495;23;20382;-74
2021/01/04 03:57:56;;;;;;;6.35;4.43;;;;;;;;;;6213778;23;20560;-72
2021/01/04 04:00:22;;;;;;;6.60;4.60;;;;;;;;;;6214023;23;20330;-72
2021/01/04 04:02:49;;;;;;;7.05;4.50;;;;;;;;;;6213899;23;20074;-73
2021/01/04 04:05:16;;;;;;;5.72;4.68;;;;;;;;;;6214059;23;20029;-73
2021/01/04 04:07:43;;;;;;;5.55;4.10;;;;;;;;;;6214024;23;20330;-72
2021/01/04 04:10:09;;;;;;;6.50;4.45;;;;;;;;;;6213769;23;20075;-72
2021/01/04 04:12:36;;;;;;;5.72;4.80;;;;;;;;;;6213001;23;20032;-73
2021/01/04 04:15:03;;;;;;;5.82;4.65;;;;;;;;;;6213135;23;20020;-74
2021/01/04 04:17:30;;;;;;;7.70;5.28;;;;;;;;;;6213199;23;20028;-74
2021/01/04 04:19:56;;;;;;;5.78;4.72;;;;;;;;;;6213119;23;20025;-72
2021/01/04 04:22:22;;;;;;;6.97;4.68;;;;;;;;;;6213821;23;20024;-73
2021/01/04 04:24:48;;;;;;;8.50;4.85;;;;;;;;;;6213864;23;20028;-74
2021/01/04 04:27:14;;;;;;;5.07;4.07;;;;;;;;;;6213134;23;20024;-73
2021/01/04 04:29:42;;;;;;;6.45;4.93;;;;;;;;;;6214432;23;20357;-73
2021/01/04 04:32:08;;;;;;;7.07;4.40;;;;;;;;;;6213484;23;20028;-73
2021/01/04 04:34:35;;;;;;;5.68;4.28;;;;;;;;;;6214252;23;20024;-73
2021/01/04 04:37:02;;;;;;;5.75;4.25;;;;;;;;;;6213699;23;20082;-72
2021/01/04 04:39:28;;;;;;;5.57;4.40;;;;;;;;;;6212844;23;20476;-73
2021/01/04 04:41:54;;;;;;;6.80;4.30;;;;;;;;;;6213955;23;20025;-74
2021/01/04 04:44:39;;;;;;;6.18;4.53;;;;;;;;;;6213082;23;20043;-73
2021/01/04 04:47:22;;;;;;;6.65;4.78;;;;;;;;;;6212977;23;20530;-73
2021/01/04 04:49:48;;;;;;;5.93;4.32;;;;;;;;;;6213718;23;20025;-72
2021/01/04 04:52:21;;;;;;;7.15;4.97;;;;;;;;;;6213298;23;20021;-72
2021/01/04 04:55:13;;;;;;;6.93;5.07;;;;;;;;;;6213010;23;20051;-71
2021/01/04 04:57:46;;;;;;;6.47;4.45;;;;;;;;;;6206821;23;20030;-72
2021/01/04 05:00:44;;;;;;;6.63;4.50;;;;;;;;;;6213021;23;20075;-72
2021/01/04 05:03:15;;;;;;;5.40;4.45;;;;;;;;;;6132056;23;20024;-73
2021/01/04 05:05:47;;;;;;;6.40;5.18;;;;;;;;;;6213179;23;20027;-73
2021/01/04 05:08:34;;;;;;;5.57;4.32;;;;;;;;;;6212839;23;20021;-74
2021/01/04 05:11:00;;;;;;;5.75;4.35;;;;;;;;;;6187982;23;20052;-73
2021/01/04 05:13:33;;;;;;;6.72;4.80;;;;;;;;;;6213676;23;20036;-73
2021/01/04 05:16:05;;;;;;;5.85;4.80;;;;;;;;;;6213742;23;20020;-73
2021/01/04 05:18:50;;;;;;;6.13;4.63;;;;;;;;;;6211750;23;20031;-74
2021/01/04 05:21:16;;;;;;;5.80;4.22;;;;;;;;;;6212431;23;20052;-74
2021/01/04 05:23:55;;;;;;;6.03;4.03;;;;;;;;;;6213240;23;20027;-74
2021/01/04 05:26:27;;;;;;;5.70;4.03;;;;;;;;;;6212920;23;20461;-74
2021/01/04 05:29:14;;;;;;;6.40;4.55;;;;;;;;;;6211935;23;20131;-73
2021/01/04 05:31:59;;;;;;;6.70;4.55;;;;;;;;;;6213062;23;20103;-73
2021/01/04 05:34:44;;;;;;;5.85;4.28;;;;;;;;;;6213531;23;20051;-74
2021/01/04 05:37:25;;;;;;;6.53;4.15;;;;;;;;;;6213303;23;20021;-73
2021/01/04 05:39:51;;;;;;;5.40;4.07;;;;;;;;;;6212948;23;20024;-73
2021/01/04 05:42:20;;;;;;;6.20;4.68;;;;;;;;;;6213955;23;20111;-72
2021/01/04 05:44:49;;;;;;;6.35;4.80;;;;;;;;;;6214119;23;20128;-72
2021/01/04 05:47:19;;;;;;;6.68;4.40;;;;;;;;;;6213197;23;20020;-72
2021/01/04 05:49:45;;;;;;;;;;;;;;;;;;6214193;23;20107;-73
2021/01/04 05:52:15;;;;;;;6.57;4.05;;;;;;;;;;6211717;23;19926;-73
2021/01/04 05:54:41;;;;;;;6.68;4.75;;;;;;;;;;6212967;23;20075;-73
2021/01/04 05:57:07;;;;;;;5.65;4.70;;;;;;;;;;6214378;23;20099;-72
2021/01/04 05:59:33;;;;;;;5.35;4.18;;;;;;;;;;6214424;23;20027;-73
2021/01/04 06:02:01;;;;;;;6.53;4.32;;;;;;;;;;6214176;23;20016;-72
2021/01/04 06:04:28;;;;;;;6.28;4.30;;;;;;;;;;6215658;23;20330;-72
2021/01/04 06:07:02;;;;;;;5.32;3.95;;;;;;;;;;6215198;23;20067;-72
2021/01/04 06:09:29;;;;;;;6.40;4.35;;;;;;;;;;6214680;23;20035;-71
2021/01/04 06:11:56;;;;;;;5.53;4.63;;;;;;;;;;6214892;23;20493;-72
2021/01/04 06:14:23;;;;;;;5.57;4.05;;;;;;;;;;6214757;23;20077;-72
2021/01/04 06:16:56;;;;;;;8.55;5.13;;;;;;;;;;6216015;23;20093;-74
2021/01/04 06:19:22;;;;;;;6.15;4.22;;;;;;;;;;6213905;23;20396;-72
2021/01/04 06:21:51;;;;;;;5.97;5.07;;;;;;;;;;6213990;23;20092;-73
2021/01/04 06:24:20;;;;;;;5.78;4.43;;;;;;;;;;6215499;23;20396;-74
2021/01/04 06:26:51;;;;;;;6.70;4.40;;;;;;;;;;6213978;23;20016;-74
2021/01/04 06:29:27;;;;;;;5.70;4.13;;;;;;;;;;6215413;23;20021;-72
2021/01/04 06:31:53;;;;;;;4.78;4.22;;;;;;;;;;6213775;23;20024;-72
2021/01/04 06:34:22;;;;;;;6.03;3.60;;;;;;;;;;6215014;23;20059;-73
2021/01/04 06:36:51;;;;;;;5.47;4.40;;;;;;;;;;6214667;23;20020;-74
2021/01/04 06:39:20;;;;;;;6.45;4.10;;;;;;;;;;6212962;23;20027;-74
2021/01/04 06:41:46;;;;;;;4.88;3.85;;;;;;;;;;6212904;23;20020;-75
2021/01/04 06:44:18;;;;;;;7.18;4.18;;;;;;;;;;6212979;23;20027;-74
2021/01/04 06:46:50;;;;;;;4.97;3.80;;;;;;;;;;6187499;23;20051;-76
2021/01/04 06:49:25;;;;;;;4.90;4.07;;;;;;;;;;6213790;23;20095;-74
2021/01/04 06:52:01;;;;;;;4.45;3.90;;;;;;;;;;6213233;23;20098;-73
2021/01/04 06:54:30;;;;;;;5.97;4.13;;;;;;;;;;6213467;23;20132;-73
2021/01/04 06:57:16;;;;;;;6.53;4.45;;;;;;;;;;6213975;23;20103;-75
2021/01/04 06:59:56;;;;;;;5.70;3.70;;;;;;;;;;6213359;23;20016;-74
2021/01/04 07:02:51;;;;;;;6.40;4.20;;;;;;;;;;6212410;23;20025;-78
2021/01/04 07:05:30;;;;;;;4.78;3.65;;;;;;;;;;6212268;23;20413;-73
2021/01/04 07:08:02;;;;;;;6.53;4.45;;;;;;;;;;6214628;23;20453;-75
2021/01/04 07:10:43;;;;;;;5.05;3.70;;;;;;;;;;6214299;23;20095;-71
2021/01/04 07:13:15;;;;;;;5.05;3.65;;;;;;;;;;6214286;23;20025;-71
2021/01/04 07:16:06;;;;;;;6.15;3.80;;;;;;;;;;6213787;23;20560;-72
2021/01/04 07:18:41;;;;;;;4.82;3.85;;;;;;;;;;6213702;23;20056;-72
2021/01/04 07:21:14;;;;;;;5.38;3.92;;;;;;;;;;6214313;23;20028;-72
2021/01/04 07:23:52;;;;;;;4.25;3.65;;;;;;;;;;6210238;23;20020;-73
2021/01/04 07:26:39;;;;;;;4.97;4.13;;;;;;;;;;6212484;23;20407;-73
2021/01/04 07:29:28;;;;;;;6.63;4.50;;;;;;;;;;6211943;23;20024;-75
2021/01/04 07:32:09;;;;;;;7.57;4.73;;;;;;;;;;6142745;23;20021;-76
2021/01/04 07:34:46;;;;;;;7.28;4.63;;;;;;;;;;6211221;23;20031;-75
2021/01/04 07:37:56;;;;;;;6.45;4.55;;;;;;;;;;6209371;23;20029;-75
2021/01/04 07:40:41;;;;;;;7.03;4.72;;;;;;;;;;6153593;23;20021;-77
2021/01/04 07:43:13;;;;;;;6.18;4.85;;;;;;;;;;6211990;23;20027;-76
2021/01/04 07:45:39;;;;;;;7.13;4.82;;;;;;;;;;6211392;23;20048;-80
2021/01/04 07:48:25;;;;;;;7.60;5.03;;;;;;;;;;6211235;23;20028;-75
2021/01/04 07:51:10;;;;;;;7.53;4.88;;;;;;;;;;6211160;23;20111;-76
2021/01/04 07:54:06;;;;;;;8.90;6.28;;;;;;;;;;6211205;23;20025;-75
2021/01/04 07:56:35;;;;;;;10.82;6.18;;;;;;;;;;6178347;23;20020;-76
2021/01/04 07:59:07;;;;;;;8.68;6.38;;;;;;;;;;6183243;23;20052;-75
2021/01/04 08:01:52;;;;;;;19.65;6.88;;;;;;;;;;6212153;23;20104;-76
2021/01/04 08:04:44;;;;;;;9.98;5.57;;;;;;;;;;6211444;23;20036;-75
2021/01/04 08:07:28;;;;;;;14.20;7.65;;;;;;;;;;6213711;23;20096;-76
2021/01/04 08:10:01;;;;;;;7.40;5.53;;;;;;;;;;6212475;23;20103;-77
2021/01/04 08:12:46;;;;;;;7.82;5.43;;;;;;;;;;6213025;23;20024;-76
2021/01/04 08:15:12;;;;;;;8.48;5.80;;;;;;;;;;6185776;23;20052;-76
2021/01/04 08:17:39;;;;;;;9.48;5.13;;;;;;;;;;6213006;23;20115;-76
2021/01/04 08:20:09;;;;;;;8.48;4.60;;;;;;;;;;6212369;23;20029;-77
2021/01/04 08:22:53;;;;;;;8.60;5.13;;;;;;;;;;6213504;23;20025;-76
2021/01/04 08:25:22;;;;;;;10.73;5.18;;;;;;;;;;6213482;23;20108;-76
2021/01/04 08:27:51;;;;;;;6.95;5.18;;;;;;;;;;6213539;23;20060;-76
2021/01/04 08:30:24;;;;;;;9.25;5.45;;;;;;;;;;6187549;23;20028;-77
2021/01/04 08:32:50;;;;;;;9.43;5.43;;;;;;;;;;6213720;23;20027;-76
2021/01/04 08:35:28;;;;;;;8.63;5.40;;;;;;;;;;6213353;23;20041;-77
2021/01/04 08:37:58;;;;;;;8.30;4.97;;;;;;;;;;6212890;23;20380;-77
2021/01/04 08:40:26;;;;;;;7.07;5.28;;;;;;;;;;6212985;23;20452;-76
2021/01/04 08:43:06;;;;;;;6.32;4.68;;;;;;;;;;6212644;23;20412;-76
2021/01/04 08:45:36;;;;;;;8.63;5.10;;;;;;;;;;6187124;23;20048;-76
2021/01/04 08:48:15;;;;;;;8.77;4.88;;;;;;;;;;6211933;23;20449;-77
2021/01/04 08:50:45;;;;;;;7.22;4.65;;;;;;;;;;6213054;23;20031;-76
2021/01/04 08:53:13;;;;;;;5.93;4.50;;;;;;;;;;6213391;23;20132;-76
2021/01/04 08:55:40;;;;;;;6.40;5.28;;;;;;;;;;6213671;23;20092;-76
2021/01/04 08:58:32;;;;;;;5.85;4.38;;;;;;;;;;6212868;23;20020;-76
2021/01/04 09:00:58;;;;;;;6.50;4.75;;;;;;;;;;6205380;23;20479;-76
2021/01/04 09:03:27;;;;;;;6.88;4.50;;;;;;;;;;6212913;23;20023;-76
2021/01/04 09:05:55;;;;;;;8.75;4.35;;;;;;;;;;6213445;23;20318;-76
2021/01/04 09:08:29;;;;;;;8.02;4.57;;;;;;;;;;6213126;23;20024;-76
2021/01/04 09:11:00;;;;;;;6.30;4.28;;;;;;;;;;6213428;23;20055;-76
2021/01/04 09:13:36;;;;;;;7.82;4.15;;;;;;;;;;6213217;23;20065;-76
2021/01/04 09:16:15;;;;;;;5.03;3.80;;;;;;;;;;6212895;23;20074;-76
2021/01/04 09:18:42;;;;;;;;;;;;;;;;;;6213201;23;20024;-75
2021/01/04 09:21:26;;;;;;;5.53;3.33;;;;;;;;;;6213285;23;20003;-76
2021/01/04 09:24:04;;;;;;;5.68;3.97;;;;;;;;;;6211693;23;20024;-75
2021/01/04 09:26:33;;;;;;;7.35;4.55;;;;;;;;;;6186585;23;20103;-75
2021/01/04 09:29:09;;;;;;;6.63;4.22;;;;;;;;;;6212028;23;20058;-75
2021/01/04 09:31:35;;;;;;;5.40;4.05;;;;;;;;;;6187286;23;20028;-75
2021/01/04 09:34:01;;;;;;;5.30;3.80;;;;;;;;;;6215352;23;20103;-75
2021/01/04 09:36:28;;;;;;;5.53;3.92;;;;;;;;;;6214568;23;20032;-76
2021/01/04 09:39:07;;;;;;;4.75;3.75;;;;;;;;;;6214000;23;20028;-76
2021/01/04 09:41:33;;;;;;;6.13;3.47;;;;;;;;;;6187811;23;20071;-78
2021/01/04 09:44:07;;;;;;;4.97;3.80;;;;;;;;;;6214397;23;20099;-76
2021/01/04 09:46:53;;;;;;;7.32;4.07;;;;;;;;;;6214624;23;20155;-76
2021/01/04 09:49:25;;;;;;;6.45;4.03;;;;;;;;;;6189285;23;20025;-76
2021/01/04 09:52:01;;;;;;;4.80;3.33;;;;;;;;;;6214078;23;20020;-76
2021/01/04 09:54:33;;;;;;;5.78;4.07;;;;;;;;;;6214879;23;20036;-76
2021/01/04 09:57:02;;;;;;;4.93;3.45;;;;;;;;;;6213847;23;20024;-77
2021/01/04 09:59:28;;;;;;;5.40;3.65;;;;;;;;;;6211300;23;20402;-76
2021/01/04 10:02:03;;;;;;;6.90;4.40;;;;;;;;;;6213920;23;20520;-76
2021/01/04 10:04:33;;;;;;;4.97;3.72;;;;;;;;;;6187499;23;20021;-77
2021/01/04 10:07:03;;;;;;;3.75;3.05;;;;;;;;;;6213967;23;20404;-76
2021/01/04 10:09:29;;;;;;;;;;;;;;;;;;6214374;23;20032;-77
2021/01/04 10:11:59;;;;;;;5.65;4.28;;;;;;;;;;6213743;23;19978;-75
2021/01/04 10:14:25;;;;;;;6.50;4.70;;;;;;;;;;6214281;23;20128;-76
2021/01/04 10:16:54;;;;;;;6.45;4.10;;;;;;;;;;6214301;23;20460;-76
2021/01/04 10:19:41;;;;;;;4.53;3.30;;;;;;;;;;6214172;23;20087;-76
2021/01/04 10:22:09;;;;;;;5.45;4.10;;;;;;;;;;6213431;23;20021;-76
2021/01/04 10:25:01;;;;;;;5.75;3.58;;;;;;;;;;6213435;23;20027;-75
2021/01/04 10:27:28;;;;;;;4.75;3.45;;;;;;;;;;6207425;23;20024;-76
2021/01/04 10:30:14;;;;;;;6.18;4.10;;;;;;;;;;6213667;23;20021;-75
2021/01/04 10:32:40;;;;;;;5.78;3.63;;;;;;;;;;6214336;23;20356;-76
2021/01/04 10:35:20;;;;;;;6.20;4.07;;;;;;;;;;6213944;23;20020;-76
2021/01/04 10:38:12;;;;;;;4.88;3.53;;;;;;;;;;6214831;23;20021;-75
2021/01/04 10:40:43;;;;;;;6.53;4.60;;;;;;;;;;6213371;23;20029;-75
2021/01/04 10:43:09;;;;;;;6.20;3.58;;;;;;;;;;6214220;23;20758;-75
2021/01/04 10:45:37;;;;;;;4.57;3.17;;;;;;;;;;6214871;23;20096;-75
2021/01/04 10:48:09;;;;;;;6.65;4.25;;;;;;;;;;6214735;23;20023;-75
2021/01/04 10:50:39;;;;;;;6.90;4.13;;;;;;;;;;6214385;23;20100;-76
2021/01/04 10:53:05;;;;;;;;;;;;;;;;;;6215157;23;20099;-76
2021/01/04 10:55:33;;;;;;;7.43;4.13;;;;;;;;;;6214048;23;19948;-76
2021/01/04 10:58:11;;;;;;;5.40;4.43;;;;;;;;;;6214792;23;20508;-75
2021/01/04 11:00:44;;;;;;;6.88;4.53;;;;;;;;;;6214418;23;20496;-75
2021/01/04 11:03:15;;;;;;;5.45;3.75;;;;;;;;;;6214325;23;20025;-76
2021/01/04 11:05:48;;;;;;;6.25;4.85;;;;;;;;;;6214638;23;20070;-75
2021/01/04 11:08:34;;;;;;;5.85;4.40;;;;;;;;;;6188651;23;20024;-76
2021/01/04 11:11:00;;;;;;;6.43;4.70;;;;;;;;;;6214264;23;20095;-76
2021/01/04 11:13:30;;;;;;;6.68;4.60;;;;;;;;;;6214325;23;20407;-76
2021/01/04 11:16:13;;;;;;;5.63;3.80;;;;;;;;;;6214075;23;20016;-76
2021/01/04 11:18:46;;;;;;;4.78;3.50;;;;;;;;;;6187302;23;20024;-76
2021/01/04 11:21:12;;;;;;;6.03;4.35;;;;;;;;;;6214231;23;20096;-76
2021/01/04 11:23:40;;;;;;;5.90;4.18;;;;;;;;;;6213956;23;20025;-76
2021/01/04 11:26:09;;;;;;;4.90;3.63;;;;;;;;;;6214035;23;20099;-75
2021/01/04 11:28:35;;;;;;;6.33;4.70;;;;;;;;;;6214224;23;20360;-75
2021/01/04 11:31:02;;;;;;;6.07;4.03;;;;;;;;;;6213488;23;20095;-75
2021/01/04 11:33:28;;;;;;;6.80;4.47;;;;;;;;;;6214288;23;20107;-75
2021/01/04 11:35:55;;;;;;;6.18;3.72;;;;;;;;;;6214152;23;20020;-75
2021/01/04 11:38:21;;;;;;;5.32;4.07;;;;;;;;;;6213509;23;20020;-75
2021/01/04 11:40:48;;;;;;;5.47;3.78;;;;;;;;;;6213822;23;20060;-76
2021/01/04 11:43:16;;;;;;;4.20;3.45;;;;;;;;;;6214182;23;20024;-75
2021/01/04 11:45:44;;;;;;;6.03;3.85;;;;;;;;;;6214416;23;20016;-76
2021/01/04 11:48:10;;;;;;;5.53;3.58;;;;;;;;;;6213761;23;20373;-76
2021/01/04 11:50:36;;;;;;;5.88;3.88;;;;;;;;;;6187760;23;20508;-76
2021/01/04 11:53:02;;;;;;;5.70;3.97;;;;;;;;;;6212261;23;20024;-76
2021/01/04 11:55:29;;;;;;;4.85;3.45;;;;;;;;;;6213133;23;20016;-76
2021/01/04 11:57:57;;;;;;;4.65;3.28;;;;;;;;;;6213705;23;20411;-75
2021/01/04 12:00:24;;;;;;;6.03;3.97;;;;;;;;;;6213662;23;20021;-76
2021/01/04 12:02:51;;;;;;;6.28;3.72;;;;;;;;;;6213375;23;20020;-75
2021/01/04 12:05:17;;;;;;;5.65;3.45;;;;;;;;;;6213406;23;20528;-75
2021/01/04 12:07:43;;;;;;;5.30;3.60;;;;;;;;;;6213017;23;20048;-72
2021/01/04 12:10:15;;;;;;;5.25;3.50;;;;;;;;;;6212486;23;20356;-74
2021/01/04 12:12:41;;;;;;;4.95;3.50;;;;;;;;;;6212670;23;20071;-73
2021/01/04 12:15:08;;;;;;;6.57;4.53;;;;;;;;;;6212787;23;20024;-74
2021/01/04 12:17:34;;;;;;;7.13;4.03;;;;;;;;;;6186041;23;20528;-74
2021/01/04 12:20:00;;;;;;;5.93;3.60;;;;;;;;;;6212650;23;20536;-74
2021/01/04 12:22:26;;;;;;;6.78;4.22;;;;;;;;;;6213445;23;20021;-74
2021/01/04 12:24:53;;;;;;;6.45;4.40;;;;;;;;;;6212509;23;20028;-73
2021/01/04 12:27:19;;;;;;;5.85;4.28;;;;;;;;;;6187519;23;20028;-74
2021/01/04 12:29:46;;;;;;;6.50;4.55;;;;;;;;;;6186590;23;20060;-74
2021/01/04 12:32:13;;;;;;;6.22;4.10;;;;;;;;;;6213216;23;20025;-75
2021/01/04 12:34:39;;;;;;;6.30;4.18;;;;;;;;;;6212627;23;20088;-75
2021/01/04 12:37:07;;;;;;;6.93;4.00;;;;;;;;;;6213258;23;20066;-75
2021/01/04 12:39:34;;;;;;;8.02;3.83;;;;;;;;;;6212749;23;20021;-74
2021/01/04 12:42:01;;;;;;;6.32;4.57;;;;;;;;;;6212741;23;20020;-75
2021/01/04 12:44:27;;;;;;;6.13;4.10;;;;;;;;;;6187202;23;20075;-75
2021/01/04 12:46:53;;;;;;;6.70;4.03;;;;;;;;;;6212993;23;20574;-75
2021/01/04 12:49:21;;;;;;;6.20;4.10;;;;;;;;;;6212606;23;20020;-74
2021/01/04 12:51:48;;;;;;;4.38;3.30;;;;;;;;;;6213072;23;20067;-74
2021/01/04 12:54:16;;;;;;;6.45;4.82;;;;;;;;;;6186076;23;20104;-74
2021/01/04 12:56:43;;;;;;;7.55;4.35;;;;;;;;;;6187015;23;20088;-74
2021/01/04 12:59:09;;;;;;;9.35;5.25;;;;;;;;;;6186070;23;20028;-74
2021/01/04 13:01:39;;;;;;;7.35;4.60;;;;;;;;;;6213386;23;20051;-74
2021/01/04 13:04:06;;;;;;;6.85;4.38;;;;;;;;;;6212837;23;20055;-74
2021/01/04 13:06:33;;;;;;;6.82;4.47;;;;;;;;;;6215138;23;20082;-74
2021/01/04 13:09:00;;;;;;;6.38;4.70;;;;;;;;;;6216520;23;20071;-74
2021/01/04 13:11:27;;;;;;;7.15;5.00;;;;;;;;;;6216718;23;20029;-74
2021/01/04 13:13:53;;;;;;;7.00;4.90;;;;;;;;;;6216042;23;20024;-75
2021/01/04 13:16:20;;;;;;;7.47;5.03;;;;;;;;;;6215572;23;20095;-74
2021/01/04 13:18:46;;;;;;;8.20;4.40;;;;;;;;;;6215184;23;20024;-75
2021/01/04 13:21:16;;;;;;;6.90;4.68;;;;;;;;;;6215913;23;20056;-74
2021/01/04 13:23:43;;;;;;;6.43;4.60;;;;;;;;;;6216250;23;20373;-73
2021/01/04 13:26:09;;;;;;;6.90;4.97;;;;;;;;;;6189938;23;20092;-74
2021/01/04 13:28:35;;;;;;;10.05;5.32;;;;;;;;;;6215373;23;20021;-73
2021/01/04 13:31:01;;;;;;;7.32;4.30;;;;;;;;;;6216634;23;20091;-73
2021/01/04 13:33:27;;;;;;;8.35;5.68;;;;;;;;;;6215428;23;20107;-74
2021/01/04 13:35:54;;;;;;;7.70;4.63;;;;;;;;;;6215813;23;20055;-74
2021/01/04 13:38:20;;;;;;;6.93;4.05;;;;;;;;;;6190429;23;20404;-74
2021/01/04 13:40:46;;;;;;;7.65;5.07;;;;;;;;;;6215585;23;20097;-74
2021/01/04 13:43:12;;;;;;;6.75;4.57;;;;;;;;;;6215752;23;20099;-73
2021/01/04 13:45:39;;;;;;;5.88;3.70;;;;;;;;;;6215640;23;20024;-73
2021/01/04 13:48:05;;;;;;;8.27;4.25;;;;;;;;;;6216799;23;20475;-73
2021/01/04 13:50:32;;;;;;;7.18;4.53;;;;;;;;;;6216313;23;20096;-73
2021/01/04 13:52:58;;;;;;;6.78;4.28;;;;;;;;;;6216669;23;20067;-75
2021/01/04 13:55:24;;;;;;;6.13;3.80;;;;;;;;;;6216487;23;20095;-74
2021/01/04 13:57:51;;;;;;;6.07;4.35;;;;;;;;;;6216899;23;20016;-74
2021/01/04 14:00:17;;;;;;;6.90;4.45;;;;;;;;;;6190736;23;20337;-75
2021/01/04 14:02:44;;;;;;;6.40;4.20;;;;;;;;;;6215673;23;20096;-74
2021/01/04 14:05:12;;;;;;;6.80;4.32;;;;;;;;;;6215423;23;20139;-74
2021/01/04 14:07:38;;;;;;;7.03;3.92;;;;;;;;;;6190657;23;20124;-75
2021/01/04 14:10:05;;;;;;;6.85;3.92;;;;;;;;;;6215991;23;20024;-74
2021/01/04 14:12:31;;;;;;;6.82;3.63;;;;;;;;;;6216019;23;20118;-74
2021/01/04 14:14:57;;;;;;;5.70;3.97;;;;;;;;;;6215823;23;20100;-74
2021/01/04 14:17:23;;;;;;;5.75;3.72;;;;;;;;;;6213630;23;20016;-74
2021/01/04 14:19:50;;;;;;;7.10;4.10;;;;;;;;;;6213595;23;20108;-74
2021/01/04 14:22:16;;;;;;;6.30;3.72;;;;;;;;;;6214219;23;20095;-74
2021/01/04 14:24:51;;;;;;;8.55;3.35;;;;;;;;;;6214884;23;20020;-74
2021/01/04 14:27:18;;;;;;;5.53;3.80;;;;;;;;;;6214486;23;20020;-74
2021/01/04 14:29:45;;;;;;;5.75;3.38;;;;;;;;;;6215243;23;20055;-73
2021/01/04 14:32:12;;;;;;;5.30;3.38;;;;;;;;;;6213144;23;20021;-75
2021/01/04 14:34:41;;;;;;;6.43;3.60;;;;;;;;;;6214415;23;20060;-74
2021/01/04 14:37:07;;;;;;;7.20;3.53;;;;;;;;;;6213343;23;20023;-74
2021/01/04 14:39:33;;;;;;;6.15;3.38;;;;;;;;;;6214320;23;20369;-74
2021/01/04 14:42:01;;;;;;;6.63;3.83;;;;;;;;;;6214769;23;20322;-75
2021/01/04 14:44:30;;;;;;;11.68;4.07;;;;;;;;;;6214549;23;20027;-71
2021/01/04 14:47:00;;;;;;;7.68;3.67;;;;;;;;;;6213090;23;20103;-71
2021/01/04 14:49:27;;;;;;;7.53;3.38;;;;;;;;;;6212691;23;20832;-70
2021/01/04 14:51:53;;;;;;;6.95;3.55;;;;;;;;;;6214249;23;20376;-71
2021/01/04 14:54:26;;;;;;;5.82;3.42;;;;;;;;;;6213589;23;20108;-72
2021/01/04 14:56:52;;;;;;;8.60;3.90;;;;;;;;;;6213595;23;20352;-71
2021/01/04 14:59:19;;;;;;;8.55;3.88;;;;;;;;;;6213290;23;20025;-71
2021/01/04 15:01:45;;;;;;;7.28;3.53;;;;;;;;;;6212156;23;20023;-71
2021/01/04 15:04:11;;;;;;;5.85;3.42;;;;;;;;;;6212618;23;20027;-72
2021/01/04 15:06:40;;;;;;;4.82;3.45;;;;;;;;;;6213070;23;20052;-71
2021/01/04 15:09:06;;;;;;;5.30;3.38;;;;;;;;;;6212642;23;20099;-71